Time;durP1;ratioP1;P1;durP2;ratioP2;P2;SDS_P1;SDS_P2;PMS_P1;PMS_P2;Temp;Humidity;BMP_temperature;BMP_pressure;BME280_temperature;BME280_humidity;BME280_pressure;Samples;Min_cycle;Max_cycle;Signal;HPM_P1;HPM_P2
2022/04/24 00:01:00;;;;;;;12.50;10.50;;;;;;;11.01;74.09;97777.34;5126446;28;20076;-72
2022/04/24 00:03:30;;;;;;;13.02;11.25;;;;;;;10.98;74.18;97782.91;5126624;28;20040;-71
2022/04/24 00:06:00;;;;;;;12.70;10.43;;;;;;;10.07;74.24;97629.59;5126496;28;20070;-70
2022/04/24 00:08:30;;;;;;;12.43;10.63;;;;;;;10.98;74.44;97774.13;5127435;28;20080;-70
2022/04/24 00:11:00;;;;;;;12.48;9.02;;;;;;;10.98;74.35;97774.13;5126781;28;20104;-70
2022/04/24 00:13:37;;;;;;;13.07;10.75;;;;;;;10.94;75.08;97768.22;5126714;28;20031;-70
2022/04/24 00:16:07;;;;;;;11.48;9.73;;;;;;;10.97;74.39;97756.53;5126621;28;20058;-70
2022/04/24 00:18:38;;;;;;;11.10;9.85;;;;;;;11.00;74.14;97757.13;5127051;28;20040;-70
2022/04/24 00:21:06;;;;;;;11.27;8.52;;;;;;;11.05;73.90;97754.94;5126679;28;20097;-70
2022/04/24 00:23:36;;;;;;;13.95;10.55;;;;;;;10.78;74.17;97706.84;5126594;28;20103;-70
2022/04/24 00:26:06;;;;;;;11.02;9.38;;;;;;;11.04;74.31;97747.94;5126552;28;20023;-70
2022/04/24 00:28:37;;;;;;;12.13;10.27;;;;;;;11.07;73.73;97741.53;5125606;28;20087;-70
2022/04/24 00:31:06;;;;;;;12.93;11.27;;;;;;;11.04;74.69;97741.81;5126701;28;20067;-71
2022/04/24 00:33:36;;;;;;;12.20;10.48;;;;;;;11.02;74.14;97739.28;5126257;28;20111;-71
2022/04/24 00:36:07;;;;;;;12.85;9.95;;;;;;;10.04;73.81;97562.81;5126121;28;20046;-71
2022/04/24 00:38:37;;;;;;;12.25;9.55;;;;;;;10.77;73.81;97674.19;5126659;28;20028;-71
2022/04/24 00:41:07;;;;;;;11.45;8.55;;;;;;;11.10;73.64;97720.94;5126398;28;20047;-71
2022/04/24 00:43:38;;;;;;;11.35;9.10;;;;;;;11.10;73.83;97723.56;5126237;28;20031;-71
2022/04/24 00:46:13;;;;;;;12.88;9.73;;;;;;;11.11;73.99;97727.91;5126034;28;20040;-71
2022/04/24 00:48:46;;;;;;;11.90;9.20;;;;;;;11.06;73.88;97718.66;5125237;28;20035;-70
2022/04/24 00:51:18;;;;;;;12.20;10.07;;;;;;;10.63;74.35;97652.44;5125200;28;20047;-70
2022/04/24 00:53:50;;;;;;;14.50;10.82;;;;;;;11.04;74.29;97708.19;5126308;28;20114;-70
2022/04/24 00:56:24;;;;;;;13.93;11.57;;;;;;;10.99;74.81;97707.72;5125944;28;20349;-71
2022/04/24 00:58:58;;;;;;;14.65;12.60;;;;;;;10.66;75.04;97660.13;5126236;28;20043;-71
2022/04/24 01:01:31;;;;;;;13.95;11.30;;;;;;;10.90;74.78;97706.66;5125937;28;20204;-71
2022/04/24 01:04:05;;;;;;;13.85;11.30;;;;;;;10.87;74.99;97712.22;5125746;28;20039;-71
2022/04/24 01:06:40;;;;;;;12.48;10.25;;;;;;;10.82;75.31;97705.63;5125854;28;20295;-71
2022/04/24 01:09:15;;;;;;;12.63;10.30;;;;;;;10.84;75.00;97706.34;5124918;28;20307;-71
2022/04/24 01:11:49;;;;;;;14.02;10.65;;;;;;;9.45;74.71;97492.63;5125795;28;20057;-71
2022/04/24 01:14:25;;;;;;;11.57;9.88;;;;;;;10.55;75.40;97653.06;5127686;28;20233;-71
2022/04/24 01:16:58;;;;;;;13.15;11.75;;;;;;;10.84;75.19;97687.78;5129519;28;20329;-71
2022/04/24 01:19:30;;;;;;;13.60;11.25;;;;;;;10.03;75.47;97554.03;5129953;28;20077;-71
2022/04/24 01:22:04;;;;;;;11.15;9.95;;;;;;;10.76;75.07;97671.66;5129974;28;20230;-71
2022/04/24 01:24:36;;;;;;;12.20;10.15;;;;;;;10.80;75.18;97681.06;5130020;28;20039;-71
2022/04/24 01:27:09;;;;;;;10.93;9.45;;;;;;;10.83;74.94;97670.19;5130048;28;20039;-71
2022/04/24 01:29:41;;;;;;;12.55;11.25;;;;;;;10.77;75.32;97666.25;5129945;28;20039;-71
2022/04/24 01:32:13;;;;;;;10.55;9.02;;;;;;;10.76;75.37;97674.28;5129624;28;20036;-72
2022/04/24 01:34:45;;;;;;;12.30;10.00;;;;;;;10.80;74.77;97676.59;5129240;28;20234;-71
2022/04/24 01:37:19;;;;;;;12.50;8.90;;;;;;;10.80;75.18;97681.91;5129955;28;20047;-71
2022/04/24 01:39:54;;;;;;;9.10;8.00;;;;;;;10.40;75.30;97604.00;5129874;28;20089;-71
2022/04/24 01:42:26;;;;;;;10.20;8.13;;;;;;;9.58;74.78;97468.66;5129054;28;20061;-71
2022/04/24 01:44:58;;;;;;;9.35;7.75;;;;;;;10.79;74.56;97666.97;5129310;28;20085;-72
2022/04/24 01:47:30;;;;;;;12.95;9.25;;;;;;;10.77;75.04;97671.56;5129471;28;20039;-71
2022/04/24 01:50:03;;;;;;;13.52;8.77;;;;;;;9.39;75.47;97482.50;5129669;28;20084;-71
2022/04/24 01:52:37;;;;;;;10.45;8.13;;;;;;;10.64;74.89;97662.06;5129377;27;20043;-71
2022/04/24 01:55:09;;;;;;;9.55;7.72;;;;;;;9.90;75.45;97561.28;5129339;28;20216;-71
2022/04/24 01:57:41;;;;;;;9.80;7.75;;;;;;;10.60;75.23;97654.34;5129160;28;20061;-71
2022/04/24 02:00:15;;;;;;;8.88;7.90;;;;;;;10.58;75.45;97640.41;5129111;28;20043;-71
2022/04/24 02:02:47;;;;;;;9.43;8.43;;;;;;;10.54;75.42;97630.19;5128920;27;20056;-71
2022/04/24 02:05:20;;;;;;;11.30;8.02;;;;;;;8.55;75.40;97304.22;5129188;27;20234;-71
2022/04/24 02:07:53;;;;;;;12.10;9.40;;;;;;;10.40;76.15;97620.72;5129208;28;20040;-72
2022/04/24 02:10:25;;;;;;;9.68;7.55;;;;;;;10.35;75.72;97625.56;5128887;28;20101;-71
2022/04/24 02:12:57;;;;;;;10.63;8.10;;;;;;;10.44;75.69;97645.16;5128375;28;20338;-71
2022/04/24 02:15:30;;;;;;;8.95;7.40;;;;;;;10.46;75.67;97641.41;5128798;28;20044;-71
2022/04/24 02:18:02;;;;;;;10.55;8.90;;;;;;;10.46;75.35;97625.50;5127939;28;20291;-71
2022/04/24 02:20:35;;;;;;;9.38;7.72;;;;;;;9.90;75.33;97538.31;5128693;28;20043;-71
2022/04/24 02:23:09;;;;;;;8.75;7.32;;;;;;;10.39;75.63;97620.84;5128623;28;20040;-71
2022/04/24 02:25:41;;;;;;;15.70;7.53;;;;;;;10.40;75.66;97606.63;5128004;27;20051;-71
2022/04/24 02:28:14;;;;;;;9.10;7.88;;;;;;;10.36;75.74;97608.69;5128631;28;20295;-71
2022/04/24 02:30:46;;;;;;;9.35;7.75;;;;;;;10.32;75.91;97607.25;5128458;28;20138;-71
2022/04/24 02:33:18;;;;;;;7.90;6.47;;;;;;;10.25;76.28;97608.72;5128442;28;20061;-72
2022/04/24 02:35:50;;;;;;;8.60;7.20;;;;;;;10.21;76.14;97616.06;5128701;28;20044;-71
2022/04/24 02:38:24;;;;;;;9.45;7.75;;;;;;;10.26;76.45;97605.97;5128369;28;20101;-71
2022/04/24 02:40:56;;;;;;;9.68;7.10;;;;;;;10.27;75.77;97602.34;5128316;28;20040;-71
2022/04/24 02:43:28;;;;;;;8.02;7.22;;;;;;;10.31;75.80;97588.84;5128592;28;20092;-71
2022/04/24 02:46:00;;;;;;;9.10;7.53;;;;;;;10.34;75.76;97580.66;5128207;28;20317;-71
2022/04/24 02:48:30;;;;;;;9.50;7.03;;;;;;;10.33;75.76;97593.06;5128461;28;20024;-71
2022/04/24 02:51:01;;;;;;;9.18;7.57;;;;;;;10.34;75.56;97604.50;5128441;27;20084;-71
2022/04/24 02:53:32;;;;;;;9.77;7.28;;;;;;;10.32;75.61;97604.63;5128654;28;20024;-71
2022/04/24 02:56:01;;;;;;;8.05;6.18;;;;;;;10.31;75.54;97597.63;5128065;28;20078;-71
2022/04/24 02:58:31;;;;;;;8.35;6.90;;;;;;;10.25;75.86;97590.19;5128247;28;20218;-72
2022/04/24 03:01:01;;;;;;;8.30;7.15;;;;;;;10.24;75.73;97583.22;5127761;28;20203;-72
2022/04/24 03:03:32;;;;;;;8.68;6.50;;;;;;;8.32;75.83;97268.25;5127828;28;20195;-72
2022/04/24 03:06:01;;;;;;;11.68;7.15;;;;;;;10.19;75.71;97574.81;5127716;28;20050;-71
2022/04/24 03:08:35;;;;;;;12.75;8.23;;;;;;;10.14;76.38;97569.06;5128067;28;20098;-71
2022/04/24 03:11:07;;;;;;;8.20;6.88;;;;;;;10.16;75.72;97565.31;5128005;28;20084;-71
2022/04/24 03:13:37;;;;;;;9.32;6.75;;;;;;;10.18;75.90;97557.25;5127985;28;20040;-71
2022/04/24 03:16:07;;;;;;;8.57;6.95;;;;;;;9.97;75.56;97527.25;5128199;27;20031;-71
2022/04/24 03:18:37;;;;;;;8.48;6.85;;;;;;;10.04;76.03;97555.72;5126825;28;20042;-72
2022/04/24 03:21:07;;;;;;;8.05;6.47;;;;;;;10.03;75.98;97546.09;5126845;28;20110;-71
2022/04/24 03:23:39;;;;;;;8.55;5.95;;;;;;;9.97;76.45;97532.53;5127569;27;20043;-71
2022/04/24 03:26:07;;;;;;;10.40;7.28;;;;;;;9.98;76.33;97540.34;5127714;28;20040;-71
2022/04/24 03:28:37;;;;;;;7.82;5.78;;;;;;;10.01;75.81;97541.91;5127626;28;20036;-71
2022/04/24 03:31:08;;;;;;;8.32;6.63;;;;;;;10.01;75.98;97533.97;5126780;28;20047;-72
2022/04/24 03:33:38;;;;;;;9.52;7.82;;;;;;;7.97;75.63;97210.34;5127545;28;20038;-71
2022/04/24 03:36:08;;;;;;;7.85;6.18;;;;;;;10.04;75.69;97541.66;5125902;28;20101;-71
2022/04/24 03:38:40;;;;;;;7.35;5.47;;;;;;;10.05;75.75;97538.88;5127356;28;20024;-71
2022/04/24 03:41:09;;;;;;;8.60;6.97;;;;;;;8.89;75.75;97372.84;5127173;28;20042;-71
2022/04/24 03:43:38;;;;;;;9.75;6.18;;;;;;;9.95;76.05;97544.09;5127588;28;20034;-71
2022/04/24 03:46:08;;;;;;;7.93;5.85;;;;;;;8.84;75.64;97359.19;5127153;28;20043;-71
2022/04/24 03:48:38;;;;;;;8.52;7.07;;;;;;;9.99;76.01;97535.91;5127269;28;20027;-71
2022/04/24 03:51:10;;;;;;;7.90;6.78;;;;;;;7.85;75.55;97164.69;5126887;28;20063;-72
2022/04/24 03:53:40;;;;;;;7.43;5.80;;;;;;;10.07;75.58;97522.88;5127139;28;20039;-72
2022/04/24 03:56:09;;;;;;;8.30;6.30;;;;;;;10.04;75.62;97512.53;5126822;28;20049;-72
2022/04/24 03:58:39;;;;;;;8.93;7.72;;;;;;;10.03;75.73;97511.69;5127111;28;20035;-71
2022/04/24 04:01:09;;;;;;;6.93;5.75;;;;;;;10.06;75.52;97522.03;5109183;28;20035;-71
2022/04/24 04:03:39;;;;;;;7.95;5.97;;;;;;;9.98;75.90;97519.19;5126950;28;20039;-71
2022/04/24 04:06:09;;;;;;;9.43;6.18;;;;;;;9.93;76.17;97516.06;5126760;28;20089;-71
2022/04/24 04:08:41;;;;;;;10.55;7.03;;;;;;;9.88;76.27;97508.50;5126063;28;20062;-71
2022/04/24 04:11:10;;;;;;;8.35;6.40;;;;;;;9.90;75.92;97509.22;5126876;28;20119;-71
2022/04/24 04:13:39;;;;;;;7.43;5.97;;;;;;;9.94;76.05;97508.00;5126797;28;20098;-72
2022/04/24 04:16:10;;;;;;;8.07;6.68;;;;;;;9.20;76.02;97363.34;5126713;28;20043;-71
2022/04/24 04:18:40;;;;;;;7.97;6.05;;;;;;;9.93;75.82;97479.84;5126656;28;20062;-71
2022/04/24 04:21:10;;;;;;;8.57;6.45;;;;;;;9.91;76.06;97473.00;5126393;28;20059;-72
2022/04/24 04:23:42;;;;;;;9.38;6.13;;;;;;;8.17;76.06;97191.16;5126377;28;20057;-71
2022/04/24 04:26:10;;;;;;;9.30;6.40;;;;;;;9.91;76.01;97487.09;5126225;28;20063;-71
2022/04/24 04:28:40;;;;;;;6.97;5.47;;;;;;;9.94;76.00;97478.91;5126261;28;20036;-71
2022/04/24 04:31:11;;;;;;;8.23;6.55;;;;;;;9.88;76.27;97476.75;5126396;28;20047;-71
2022/04/24 04:33:41;;;;;;;9.95;6.25;;;;;;;9.85;76.25;97478.81;5125631;28;20039;-71
2022/04/24 04:36:11;;;;;;;9.50;6.75;;;;;;;9.85;76.10;97479.66;5125552;28;20047;-71
2022/04/24 04:38:42;;;;;;;8.02;5.70;;;;;;;9.88;76.15;97474.09;5126306;28;20115;-71
2022/04/24 04:41:11;;;;;;;8.32;6.47;;;;;;;9.88;76.04;97474.09;5126330;28;20110;-72
2022/04/24 04:43:41;;;;;;;9.73;6.18;;;;;;;9.87;76.37;97475.06;5126402;28;20023;-70
2022/04/24 04:46:11;;;;;;;7.07;5.88;;;;;;;9.73;76.63;97462.13;5125141;28;20039;-71
2022/04/24 04:48:42;;;;;;;8.40;6.55;;;;;;;9.82;76.51;97471.13;5125077;28;20035;-71
2022/04/24 04:51:11;;;;;;;8.45;6.13;;;;;;;9.87;76.33;97480.38;5125247;28;20051;-71
2022/04/24 04:53:43;;;;;;;7.57;6.78;;;;;;;9.87;76.34;97474.22;5126292;28;20107;-71
2022/04/24 04:56:11;;;;;;;9.30;6.78;;;;;;;9.38;76.36;97385.63;5126275;28;20043;-71
2022/04/24 04:58:42;;;;;;;9.70;7.20;;;;;;;9.88;76.19;97463.53;5125405;28;20036;-71
2022/04/24 05:01:12;;;;;;;8.32;6.43;;;;;;;9.59;75.65;97410.34;5126395;28;20027;-71
2022/04/24 05:03:42;;;;;;;8.75;6.72;;;;;;;10.00;75.57;97469.59;5125857;28;20043;-71
2022/04/24 05:06:12;;;;;;;8.18;6.68;;;;;;;9.69;75.51;97410.44;5126283;28;20221;-72
2022/04/24 05:08:44;;;;;;;10.70;8.18;;;;;;;10.09;75.36;97466.19;5126056;28;20060;-71
2022/04/24 05:11:12;;;;;;;9.90;8.57;;;;;;;10.16;75.20;97458.59;5126039;28;20063;-71
2022/04/24 05:13:42;;;;;;;8.77;6.72;;;;;;;10.22;74.76;97445.69;5125761;28;20039;-72
2022/04/24 05:16:13;;;;;;;9.13;7.22;;;;;;;10.28;74.24;97433.75;5126008;28;20055;-71
2022/04/24 05:18:43;;;;;;;10.40;7.97;;;;;;;10.33;74.29;97418.31;5124931;28;20054;-71
2022/04/24 05:21:13;;;;;;;12.25;7.72;;;;;;;10.40;74.07;97434.50;5125165;28;20099;-71
2022/04/24 05:23:46;;;;;;;8.80;6.95;;;;;;;10.44;73.91;97415.56;5125925;28;20039;-71
2022/04/24 05:26:14;;;;;;;9.40;7.93;;;;;;;10.46;73.63;97434.81;5125367;28;20200;-71
2022/04/24 05:28:44;;;;;;;10.25;8.02;;;;;;;10.48;73.76;97427.59;5125634;28;20204;-71
2022/04/24 05:31:13;;;;;;;10.30;8.45;;;;;;;10.48;73.45;97416.16;5125925;28;20074;-71
2022/04/24 05:33:43;;;;;;;9.68;7.63;;;;;;;10.45;73.44;97411.97;5125067;28;20035;-72
2022/04/24 05:36:13;;;;;;;10.40;6.60;;;;;;;9.53;73.10;97275.16;5125805;28;20032;-71
2022/04/24 05:38:45;;;;;;;8.93;7.22;;;;;;;8.59;72.82;97126.13;5125769;28;20042;-71
2022/04/24 05:41:14;;;;;;;10.35;7.90;;;;;;;10.54;72.93;97421.78;5126002;28;20054;-71
2022/04/24 05:43:44;;;;;;;9.65;6.65;;;;;;;10.63;72.60;97424.59;5125805;28;20110;-71
2022/04/24 05:46:14;;;;;;;9.25;6.68;;;;;;;10.71;72.34;97430.91;5125749;28;20031;-72
2022/04/24 05:48:44;;;;;;;13.90;9.73;;;;;;;10.74;72.10;97429.81;5124982;28;20043;-71
2022/04/24 05:51:14;;;;;;;10.32;7.15;;;;;;;10.82;72.04;97432.66;5125986;28;20027;-71
2022/04/24 05:53:46;;;;;;;9.27;6.40;;;;;;;10.88;71.57;97430.34;5125432;28;20063;-71
2022/04/24 05:56:14;;;;;;;7.90;6.38;;;;;;;10.98;71.21;97426.88;5125632;28;20050;-71
2022/04/24 05:58:45;;;;;;;9.18;6.55;;;;;;;11.07;71.00;97418.97;5125302;28;20040;-71
2022/04/24 06:01:15;;;;;;;7.57;5.90;;;;;;;11.20;70.79;97427.50;5128462;28;20127;-72
2022/04/24 06:03:45;;;;;;;8.15;5.75;;;;;;;10.23;70.27;97285.03;5129272;28;20043;-71
2022/04/24 06:06:16;;;;;;;8.70;5.15;;;;;;;11.31;70.16;97415.97;5128835;28;20035;-71
2022/04/24 06:08:46;;;;;;;6.45;4.90;;;;;;;11.37;69.85;97414.56;5128166;28;20035;-71
2022/04/24 06:11:15;;;;;;;6.70;4.60;;;;;;;11.47;69.56;97391.56;5128571;28;20027;-71
2022/04/24 06:13:46;;;;;;;7.15;5.80;;;;;;;11.70;68.58;97400.94;5128785;28;20045;-71
2022/04/24 06:16:15;;;;;;;6.47;4.75;;;;;;;11.86;68.02;97389.75;5128518;28;20046;-71
2022/04/24 06:18:45;;;;;;;7.32;5.30;;;;;;;12.35;66.67;97379.97;5129007;28;20059;-71
2022/04/24 06:21:16;;;;;;;6.30;5.10;;;;;;;12.69;65.57;97390.94;5128420;28;20028;-71
2022/04/24 06:23:47;;;;;;;7.47;5.10;;;;;;;12.39;66.19;97371.59;5128624;28;20040;-71
2022/04/24 06:26:16;;;;;;;8.18;5.13;;;;;;;12.14;67.43;97356.22;5128704;28;20102;-71
2022/04/24 06:28:46;;;;;;;6.78;4.53;;;;;;;11.99;67.34;97373.56;5128776;28;20085;-72
2022/04/24 06:31:16;;;;;;;7.38;4.57;;;;;;;11.93;68.00;97366.16;5128758;28;20028;-71
2022/04/24 06:33:46;;;;;;;9.30;4.95;;;;;;;11.86;68.22;97373.84;5128710;28;20040;-71
2022/04/24 06:36:16;;;;;;;6.70;4.85;;;;;;;11.85;68.05;97366.84;5128956;28;20110;-71
2022/04/24 06:38:48;;;;;;;6.90;4.47;;;;;;;11.36;68.14;97280.28;5128419;28;20099;-71
2022/04/24 06:41:17;;;;;;;4.60;3.85;;;;;;;11.86;67.94;97360.56;5127823;28;20035;-72
2022/04/24 06:43:47;;;;;;;5.75;4.13;;;;;;;11.87;67.72;97355.13;5128266;28;20036;-72
2022/04/24 06:46:18;;;;;;;5.13;3.97;;;;;;;7.35;67.51;96602.09;5128495;28;20046;-72
2022/04/24 06:48:47;;;;;;;11.05;4.22;;;;;;;11.60;67.26;97299.28;5128545;28;20084;-72
2022/04/24 06:51:17;;;;;;;4.68;3.38;;;;;;;11.92;67.80;97344.06;5128795;28;20039;-71
2022/04/24 06:53:49;;;;;;;7.60;3.65;;;;;;;11.97;67.68;97341.00;5128147;28;20047;-71
2022/04/24 06:56:17;;;;;;;5.80;3.25;;;;;;;11.97;67.36;97341.84;5128267;28;20074;-71
2022/04/24 06:58:48;;;;;;;4.75;3.25;;;;;;;12.00;66.42;97338.06;5128262;28;20069;-71
2022/04/24 07:01:19;;;;;;;7.80;3.97;;;;;;;12.06;66.70;97333.06;5127928;28;20055;-72
2022/04/24 07:03:48;;;;;;;4.88;3.00;;;;;;;12.09;66.60;97338.06;5127789;28;20035;-72
2022/04/24 07:06:18;;;;;;;4.85;2.72;;;;;;;12.12;66.05;97347.56;5127988;28;20144;-71
2022/04/24 07:08:49;;;;;;;5.80;2.78;;;;;;;12.17;66.18;97340.03;5126883;28;20138;-72
2022/04/24 07:11:19;;;;;;;6.30;3.80;;;;;;;12.18;65.84;97336.41;5127668;28;20047;-71
2022/04/24 07:13:48;;;;;;;8.77;3.38;;;;;;;12.18;64.68;97341.72;5127745;28;20039;-72
2022/04/24 07:16:18;;;;;;;5.72;2.90;;;;;;;7.08;64.53;96526.25;5126631;28;20245;-70
2022/04/24 07:18:48;;;;;;;4.25;2.90;;;;;;;12.28;64.53;97342.53;5127897;28;20055;-70
2022/04/24 07:21:19;;;;;;;5.97;2.83;;;;;;;12.31;64.88;97352.03;5126738;28;20039;-70
2022/04/24 07:23:50;;;;;;;5.43;2.75;;;;;;;12.36;65.28;97344.47;5127441;28;20055;-71
2022/04/24 07:26:20;;;;;;;4.20;2.30;;;;;;;12.36;65.12;97350.63;5127262;28;20107;-71
2022/04/24 07:28:50;;;;;;;6.13;3.03;;;;;;;12.38;65.16;97347.81;5127195;28;20044;-71
2022/04/24 07:31:20;;;;;;;4.60;2.50;;;;;;;12.39;64.81;97344.19;5127383;28;20137;-72
2022/04/24 07:33:52;;;;;;;5.85;2.40;;;;;;;12.43;64.75;97357.03;5127573;28;20090;-71
2022/04/24 07:36:21;;;;;;;3.65;2.20;;;;;;;12.46;64.96;97347.94;5127434;28;20066;-71
2022/04/24 07:38:52;;;;;;;5.45;3.13;;;;;;;11.41;64.24;97174.63;5127156;28;20043;-71
2022/04/24 07:41:21;;;;;;;6.55;2.67;;;;;;;12.55;64.78;97346.22;5127132;28;20073;-71
2022/04/24 07:43:51;;;;;;;15.48;3.63;;;;;;;12.57;63.85;97358.38;5126397;28;20043;-71
2022/04/24 07:46:23;;;;;;;4.25;2.53;;;;;;;12.62;64.11;97355.28;5126730;28;20114;-72
2022/04/24 07:48:51;;;;;;;3.55;2.47;;;;;;;12.64;64.72;97363.94;5126910;28;20061;-71
2022/04/24 07:51:21;;;;;;;6.65;2.40;;;;;;;12.67;64.62;97364.50;5127002;28;20035;-72
2022/04/24 07:53:54;;;;;;;5.22;2.30;;;;;;;12.73;63.75;97352.44;5127035;28;20046;-71
2022/04/24 07:56:21;;;;;;;5.88;2.30;;;;;;;12.80;64.00;97361.50;5125798;28;20323;-71
2022/04/24 07:58:52;;;;;;;6.40;2.88;;;;;;;12.52;64.29;97304.84;5126772;27;20203;-71
2022/04/24 08:01:22;;;;;;;3.53;2.35;;;;;;;12.92;63.78;97348.88;5126654;28;20300;-71
2022/04/24 08:03:52;;;;;;;4.03;2.28;;;;;;;12.97;63.72;97367.88;5127127;28;20116;-71
2022/04/24 08:06:22;;;;;;;7.15;3.17;;;;;;;12.40;63.78;97258.19;5127205;28;20023;-72
2022/04/24 08:08:54;;;;;;;6.88;2.88;;;;;;;12.74;63.65;97312.44;5126208;28;20031;-71
2022/04/24 08:11:22;;;;;;;8.48;2.75;;;;;;;13.08;62.96;97352.56;5126447;28;20322;-71
2022/04/24 08:13:52;;;;;;;5.35;2.40;;;;;;;13.11;63.28;97346.94;5126554;28;20230;-71
2022/04/24 08:16:26;;;;;;;3.92;2.45;;;;;;;13.14;63.13;97361.75;5126515;28;20207;-71
2022/04/24 08:19:01;;;;;;;4.18;2.50;;;;;;;13.19;63.20;97358.66;5126760;28;20287;-71
2022/04/24 08:21:33;;;;;;;6.15;2.40;;;;;;;13.24;63.19;97353.72;5126523;28;20081;-71
2022/04/24 08:24:07;;;;;;;5.10;2.33;;;;;;;12.97;62.52;97285.44;5125884;28;20092;-71
2022/04/24 08:26:40;;;;;;;5.57;2.67;;;;;;;13.32;62.28;97348.50;5126472;28;20039;-71
2022/04/24 08:29:12;;;;;;;4.88;2.58;;;;;;;12.94;63.03;97278.59;5126298;28;20039;-71
2022/04/24 08:31:44;;;;;;;5.50;2.10;;;;;;;13.40;63.01;97348.56;5125691;28;20081;-71
2022/04/24 08:34:16;;;;;;;4.75;2.38;;;;;;;13.43;61.96;97351.78;5126389;28;20043;-71
2022/04/24 08:36:48;;;;;;;6.80;2.83;;;;;;;13.20;63.11;97291.16;5125294;28;20047;-71
2022/04/24 08:39:22;;;;;;;5.38;2.55;;;;;;;13.46;62.84;97351.50;5125385;28;20084;-71
2022/04/24 08:41:54;;;;;;;5.97;2.60;;;;;;;13.49;62.40;97361.00;5125867;28;20085;-71
2022/04/24 08:44:29;;;;;;;5.38;2.55;;;;;;;13.55;62.56;97367.53;5125935;28;20085;-71
2022/04/24 08:47:01;;;;;;;3.70;2.38;;;;;;;13.56;62.40;97361.22;5126059;28;20287;-71
2022/04/24 08:49:33;;;;;;;3.28;2.25;;;;;;;13.62;62.31;97365.94;5125904;28;20330;-70
2022/04/24 08:52:07;;;;;;;5.88;2.55;;;;;;;13.64;62.57;97356.81;5125150;28;20044;-71
2022/04/24 08:54:42;;;;;;;5.57;3.30;;;;;;;13.64;61.27;97375.47;5126028;28;20075;-71
2022/04/24 08:57:13;;;;;;;;;;;;;;;13.63;61.37;97351.66;5126650;28;20303;-72
2022/04/24 08:59:46;;;;;;;8.07;2.92;;;;;;;13.69;61.14;97378.50;5125917;28;20106;-71
2022/04/24 09:02:18;;;;;;;5.97;2.60;;;;;;;13.76;61.70;97344.97;5125682;28;20055;-72
2022/04/24 09:04:52;;;;;;;8.20;2.42;;;;;;;13.83;60.86;97355.00;5126140;28;20043;-72
2022/04/24 09:07:31;;;;;;;4.15;1.98;;;;;;;12.01;60.18;97035.31;5126022;28;20276;-71
2022/04/24 09:10:09;;;;;;;7.97;2.72;;;;;;;13.87;60.22;97343.88;5125815;28;20044;-71
2022/04/24 09:12:41;;;;;;;7.85;2.75;;;;;;;13.94;60.28;97325.47;5124990;28;20035;-71
2022/04/24 09:15:17;;;;;;;4.35;2.08;;;;;;;12.69;60.11;97112.72;5125239;28;20043;-72
2022/04/24 09:18:01;;;;;;;5.45;2.60;;;;;;;14.01;59.60;97343.34;5125920;28;20040;-72
2022/04/24 09:20:42;;;;;;;7.65;2.85;;;;;;;14.07;59.09;97328.56;5125624;28;20040;-71
2022/04/24 09:23:14;;;;;;;3.88;2.50;;;;;;;14.15;59.56;97319.78;5125534;28;20039;-71
2022/04/24 09:25:47;;;;;;;4.55;2.15;;;;;;;14.13;58.57;97314.63;5124889;28;20040;-71
2022/04/24 09:28:20;;;;;;;7.82;3.03;;;;;;;13.88;59.47;97255.03;5125295;28;20181;-71
2022/04/24 09:30:52;;;;;;;7.47;2.63;;;;;;;14.21;59.45;97290.69;5124752;28;20092;-71
2022/04/24 09:33:24;;;;;;;7.63;2.70;;;;;;;14.23;59.88;97309.19;5108762;28;20046;-71
2022/04/24 09:35:56;;;;;;;7.18;2.65;;;;;;;14.27;59.66;97321.19;5128512;28;20046;-72
2022/04/24 09:38:29;;;;;;;7.40;2.67;;;;;;;14.07;58.83;97283.28;5129426;28;20357;-71
2022/04/24 09:41:02;;;;;;;4.57;2.45;;;;;;;14.33;59.20;97297.44;5129377;28;20096;-71
2022/04/24 09:43:42;;;;;;;6.57;2.78;;;;;;;14.33;58.48;97310.75;5129326;28;20043;-71
2022/04/24 09:46:16;;;;;;;6.50;2.10;;;;;;;14.38;59.94;97291.63;5129295;27;20140;-72
2022/04/24 09:48:52;;;;;;;4.72;2.83;;;;;;;14.01;58.95;97236.81;5128604;28;20050;-71
2022/04/24 09:51:23;;;;;;;7.38;2.47;;;;;;;14.40;59.51;97295.81;5129066;27;20035;-71
2022/04/24 09:53:58;;;;;;;9.82;3.55;;;;;;;14.43;59.06;97303.47;5128560;28;20051;-72
2022/04/24 09:56:33;;;;;;;5.97;2.60;;;;;;;14.45;58.31;97293.50;5129107;28;20296;-72
2022/04/24 09:59:06;;;;;;;5.97;2.17;;;;;;;14.53;58.72;97302.53;5128489;28;20047;-72
2022/04/24 10:01:38;;;;;;;5.78;2.53;;;;;;;14.60;58.28;97299.13;5128060;28;20067;-72
2022/04/24 10:04:11;;;;;;;7.10;2.63;;;;;;;14.60;57.89;97301.78;5128998;28;20092;-71
2022/04/24 10:06:45;;;;;;;5.80;2.30;;;;;;;14.63;57.69;97284.66;5128772;28;20100;-71
2022/04/24 10:09:19;;;;;;;6.53;2.67;;;;;;;14.65;58.33;97285.31;5128866;27;20299;-71
2022/04/24 10:11:53;;;;;;;;;;;;;;;14.61;57.18;97303.47;5129422;28;20036;-71
2022/04/24 10:14:26;;;;;;;6.35;2.50;;;;;;;14.63;57.79;97319.31;5129037;28;19919;-71
2022/04/24 10:17:26;;;;;;;6.20;2.33;;;;;;;14.74;56.28;97332.34;5128844;28;20043;-71
2022/04/24 10:20:28;;;;;;;13.68;4.05;;;;;;;14.78;55.96;97325.72;5127823;28;20044;-71
2022/04/24 10:23:01;;;;;;;3.95;2.00;;;;;;;14.82;55.86;97332.38;5129280;28;20047;-71
2022/04/24 10:25:37;;;;;;;5.05;2.38;;;;;;;14.85;55.89;97336.56;5128936;27;20296;-74
2022/04/24 10:28:13;;;;;;;11.95;2.38;;;;;;;14.87;56.37;97351.41;5128863;28;20048;-71
2022/04/24 10:30:58;;;;;;;6.22;2.28;;;;;;;14.90;56.30;97315.59;5128091;28;20314;-71
2022/04/24 10:33:32;;;;;;;4.05;2.28;;;;;;;14.20;56.53;97200.28;5127759;28;20043;-70
2022/04/24 10:36:12;;;;;;;5.07;2.40;;;;;;;12.74;56.32;96953.63;5128974;28;20226;-70
2022/04/24 10:38:49;;;;;;;4.25;2.25;;;;;;;14.99;55.11;97301.28;5128521;28;20043;-70
2022/04/24 10:41:22;;;;;;;8.73;3.03;;;;;;;15.05;55.66;97304.13;5128495;28;20039;-70
2022/04/24 10:43:57;;;;;;;4.85;2.17;;;;;;;15.07;55.71;97310.16;5127982;28;20055;-71
2022/04/24 10:46:27;;;;;;;9.30;2.60;;;;;;;15.13;53.99;97310.50;5127124;28;20043;-71
2022/04/24 10:49:06;;;;;;;7.47;2.65;;;;;;;15.20;52.97;97319.53;5128217;28;20055;-71
2022/04/24 10:51:40;;;;;;;3.22;2.25;;;;;;;15.26;53.25;97310.84;5128265;28;20039;-71
2022/04/24 10:54:14;;;;;;;4.60;1.98;;;;;;;15.31;54.20;97324.56;5128139;28;20035;-71
2022/04/24 10:56:49;;;;;;;3.30;1.70;;;;;;;12.93;53.28;96912.72;5128038;28;20039;-71
2022/04/24 10:59:23;;;;;;;5.75;2.00;;;;;;;15.41;53.29;97295.88;5127960;28;20208;-71
2022/04/24 11:01:57;;;;;;;5.68;2.25;;;;;;;15.68;51.83;97313.47;5127809;28;20055;-71
2022/04/24 11:04:40;;;;;;;3.17;1.67;;;;;;;15.95;50.35;97310.47;5127825;28;20035;-70
2022/04/24 11:07:21;;;;;;;4.22;2.63;;;;;;;15.98;49.14;97258.53;5127943;28;20040;-70
2022/04/24 11:10:02;;;;;;;5.20;2.33;;;;;;;16.42;48.64;97298.19;5127733;28;20043;-71
2022/04/24 11:12:34;;;;;;;6.50;2.03;;;;;;;16.06;49.35;97226.44;5127196;28;20043;-71
2022/04/24 11:15:10;;;;;;;5.07;2.42;;;;;;;15.11;48.05;97062.53;5126963;28;20296;-71
2022/04/24 11:17:43;;;;;;;7.30;2.50;;;;;;;16.56;47.63;97289.47;5127680;28;20039;-71
2022/04/24 11:20:18;;;;;;;6.70;1.90;;;;;;;16.70;49.63;97288.78;5127582;28;20040;-71
2022/04/24 11:22:52;;;;;;;3.70;1.85;;;;;;;16.93;47.34;97302.22;5126893;28;20043;-71
2022/04/24 11:25:27;;;;;;;3.13;2.10;;;;;;;17.08;47.47;97292.44;5127377;28;20287;-71
2022/04/24 11:28:00;;;;;;;9.55;2.92;;;;;;;16.42;46.78;97137.78;5127192;27;20050;-71
2022/04/24 11:30:37;;;;;;;5.68;2.13;;;;;;;17.60;46.79;97276.59;5127476;28;20095;-71
2022/04/24 11:33:09;;;;;;;3.33;2.20;;;;;;;17.69;46.40;97269.34;5127289;28;20051;-71
2022/04/24 11:35:42;;;;;;;4.68;1.85;;;;;;;16.83;43.61;97091.09;5127142;28;20039;-71
2022/04/24 11:38:14;;;;;;;4.80;1.83;;;;;;;17.04;44.33;97102.97;5127254;28;20047;-71
2022/04/24 11:40:47;;;;;;;4.53;2.00;;;;;;;18.34;43.24;97260.69;5126343;28;20058;-71
2022/04/24 11:43:20;;;;;;;3.92;1.98;;;;;;;18.51;41.03;97266.72;5126242;28;20040;-71
2022/04/24 11:51:34;;;;;;;4.43;1.50;;;;;;;18.45;41.34;97260.25;5126907;28;20039;-71
2022/04/24 11:54:08;;;;;;;4.63;1.92;;;;;;;18.24;39.91;97250.25;5126847;28;20039;-71
2022/04/24 11:56:40;;;;;;;2.60;1.27;;;;;;;18.14;41.09;97254.22;5126663;28;20296;-70
2022/04/24 11:59:17;;;;;;;5.07;1.73;;;;;;;18.07;37.78;97274.72;5126232;28;20085;-70